sensor_id;sensor_type;location;lat;lon;timestamp;P1;durP1;ratioP1;P2;durP2;ratioP2
60372;SDS011;46216;52.220;5.134;2023-03-03T00:01:21;19.92;;;12.02;;
60372;SDS011;46216;52.220;5.134;2023-03-03T00:03:49;19.38;;;11.13;;
60372;SDS011;46216;52.220;5.134;2023-03-03T00:06:15;19.30;;;10.85;;
60372;SDS011;46216;52.220;5.134;2023-03-03T00:08:40;20.73;;;10.73;;
60372;SDS011;46216;52.220;5.134;2023-03-03T00:11:06;20.08;;;11.30;;
60372;SDS011;46216;52.220;5.134;2023-03-03T00:13:32;21.10;;;10.90;;
60372;SDS011;46216;52.220;5.134;2023-03-03T00:18:50;22.10;;;10.90;;
60372;SDS011;46216;52.220;5.134;2023-03-03T00:21:27;18.52;;;11.02;;
60372;SDS011;46216;52.220;5.134;2023-03-03T00:24:01;21.23;;;10.45;;
60372;SDS011;46216;52.220;5.134;2023-03-03T00:26:40;20.83;;;10.82;;
60372;SDS011;46216;52.220;5.134;2023-03-03T00:29:22;22.08;;;12.07;;
60372;SDS011;46216;52.220;5.134;2023-03-03T00:31:51;17.60;;;10.82;;
60372;SDS011;46216;52.220;5.134;2023-03-03T00:36:42;18.05;;;10.57;;
60372;SDS011;46216;52.220;5.134;2023-03-03T00:41:52;18.83;;;11.68;;
60372;SDS011;46216;52.220;5.134;2023-03-03T00:44:30;19.15;;;11.20;;
60372;SDS011;46216;52.220;5.134;2023-03-03T00:52:57;18.83;;;11.77;;
60372;SDS011;46216;52.220;5.134;2023-03-03T00:55:24;20.90;;;11.90;;
60372;SDS011;46216;52.220;5.134;2023-03-03T00:57:49;18.00;;;10.95;;
60372;SDS011;46216;52.220;5.134;2023-03-03T01:00:15;21.80;;;11.43;;
60372;SDS011;46216;52.220;5.134;2023-03-03T01:02:40;19.67;;;11.52;;
60372;SDS011;46216;52.220;5.134;2023-03-03T01:05:05;19.17;;;10.77;;
60372;SDS011;46216;52.220;5.134;2023-03-03T01:07:31;19.42;;;11.38;;
60372;SDS011;46216;52.220;5.134;2023-03-03T01:09:56;21.55;;;12.07;;
60372;SDS011;46216;52.220;5.134;2023-03-03T01:12:22;19.63;;;11.88;;
60372;SDS011;46216;52.220;5.134;2023-03-03T01:14:48;19.95;;;11.48;;
60372;SDS011;46216;52.220;5.134;2023-03-03T01:17:16;20.77;;;11.85;;
60372;SDS011;46216;52.220;5.134;2023-03-03T01:19:42;18.50;;;11.77;;
60372;SDS011;46216;52.220;5.134;2023-03-03T01:22:07;21.20;;;12.82;;
60372;SDS011;46216;52.220;5.134;2023-03-03T01:24:32;21.63;;;12.60;;
60372;SDS011;46216;52.220;5.134;2023-03-03T01:26:58;19.15;;;12.13;;
60372;SDS011;46216;52.220;5.134;2023-03-03T01:29:23;21.08;;;12.20;;
60372;SDS011;46216;52.220;5.134;2023-03-03T01:31:48;21.25;;;13.15;;
60372;SDS011;46216;52.220;5.134;2023-03-03T01:34:14;24.17;;;12.57;;
60372;SDS011;46216;52.220;5.134;2023-03-03T01:36:39;19.83;;;12.70;;
60372;SDS011;46216;52.220;5.134;2023-03-03T01:39:04;19.63;;;12.05;;
60372;SDS011;46216;52.220;5.134;2023-03-03T01:41:30;25.20;;;12.82;;
60372;SDS011;46216;52.220;5.134;2023-03-03T01:43:59;23.38;;;13.23;;
60372;SDS011;46216;52.220;5.134;2023-03-03T01:49:02;22.65;;;13.15;;
60372;SDS011;46216;52.220;5.134;2023-03-03T01:51:37;23.55;;;13.52;;
60372;SDS011;46216;52.220;5.134;2023-03-03T01:54:10;24.17;;;13.98;;
60372;SDS011;46216;52.220;5.134;2023-03-03T01:56:42;28.45;;;14.77;;
60372;SDS011;46216;52.220;5.134;2023-03-03T01:59:19;25.80;;;14.68;;
60372;SDS011;46216;52.220;5.134;2023-03-03T02:01:47;28.50;;;15.55;;
60372;SDS011;46216;52.220;5.134;2023-03-03T02:04:13;26.95;;;14.73;;
60372;SDS011;46216;52.220;5.134;2023-03-03T02:06:40;27.92;;;15.43;;
60372;SDS011;46216;52.220;5.134;2023-03-03T02:09:26;29.10;;;15.35;;
60372;SDS011;46216;52.220;5.134;2023-03-03T02:12:00;26.27;;;15.18;;
60372;SDS011;46216;52.220;5.134;2023-03-03T02:14:29;25.58;;;13.95;;
60372;SDS011;46216;52.220;5.134;2023-03-03T02:16:54;29.38;;;16.02;;
60372;SDS011;46216;52.220;5.134;2023-03-03T02:22:07;28.50;;;14.85;;
60372;SDS011;46216;52.220;5.134;2023-03-03T02:24:41;26.50;;;14.25;;
60372;SDS011;46216;52.220;5.134;2023-03-03T02:27:12;28.77;;;14.38;;
60372;SDS011;46216;52.220;5.134;2023-03-03T02:29:38;27.83;;;14.32;;
60372;SDS011;46216;52.220;5.134;2023-03-03T02:32:03;23.90;;;12.98;;
60372;SDS011;46216;52.220;5.134;2023-03-03T02:34:29;26.35;;;13.93;;
60372;SDS011;46216;52.220;5.134;2023-03-03T02:36:54;23.75;;;13.93;;
60372;SDS011;46216;52.220;5.134;2023-03-03T02:39:21;26.15;;;13.98;;
60372;SDS011;46216;52.220;5.134;2023-03-03T02:44:30;27.52;;;11.23;;
60372;SDS011;46216;52.220;5.134;2023-03-03T02:46:56;22.20;;;10.93;;
60372;SDS011;46216;52.220;5.134;2023-03-03T02:49:26;21.30;;;10.38;;
60372;SDS011;46216;52.220;5.134;2023-03-03T02:51:52;20.63;;;10.02;;
60372;SDS011;46216;52.220;5.134;2023-03-03T02:54:20;20.25;;;10.98;;
60372;SDS011;46216;52.220;5.134;2023-03-03T02:56:46;28.17;;;11.40;;
60372;SDS011;46216;52.220;5.134;2023-03-03T02:59:12;23.20;;;11.90;;
60372;SDS011;46216;52.220;5.134;2023-03-03T03:01:38;23.08;;;11.45;;
60372;SDS011;46216;52.220;5.134;2023-03-03T03:04:10;26.98;;;11.02;;
60372;SDS011;46216;52.220;5.134;2023-03-03T03:06:38;21.10;;;11.13;;
60372;SDS011;46216;52.220;5.134;2023-03-03T03:09:05;20.70;;;10.93;;
60372;SDS011;46216;52.220;5.134;2023-03-03T03:11:31;23.25;;;11.50;;
60372;SDS011;46216;52.220;5.134;2023-03-03T03:13:59;33.22;;;11.90;;
60372;SDS011;46216;52.220;5.134;2023-03-03T03:16:24;25.23;;;11.88;;
60372;SDS011;46216;52.220;5.134;2023-03-03T03:18:50;21.85;;;11.63;;
60372;SDS011;46216;52.220;5.134;2023-03-03T03:21:15;28.95;;;12.13;;
60372;SDS011;46216;52.220;5.134;2023-03-03T03:23:42;32.05;;;11.88;;
60372;SDS011;46216;52.220;5.134;2023-03-03T03:26:07;24.77;;;12.20;;
60372;SDS011;46216;52.220;5.134;2023-03-03T03:28:33;25.50;;;11.85;;
60372;SDS011;46216;52.220;5.134;2023-03-03T03:30:59;34.75;;;12.23;;
60372;SDS011;46216;52.220;5.134;2023-03-03T03:33:24;29.42;;;12.13;;
60372;SDS011;46216;52.220;5.134;2023-03-03T03:35:52;30.27;;;11.65;;
60372;SDS011;46216;52.220;5.134;2023-03-03T03:38:19;27.25;;;11.32;;
60372;SDS011;46216;52.220;5.134;2023-03-03T03:40:46;26.77;;;11.10;;
60372;SDS011;46216;52.220;5.134;2023-03-03T03:43:11;28.52;;;11.75;;
60372;SDS011;46216;52.220;5.134;2023-03-03T03:45:37;26.77;;;11.82;;
60372;SDS011;46216;52.220;5.134;2023-03-03T03:48:03;25.67;;;11.48;;
60372;SDS011;46216;52.220;5.134;2023-03-03T03:50:29;23.60;;;11.73;;
60372;SDS011;46216;52.220;5.134;2023-03-03T03:52:54;28.02;;;9.68;;
60372;SDS011;46216;52.220;5.134;2023-03-03T03:55:20;24.55;;;11.57;;
60372;SDS011;46216;52.220;5.134;2023-03-03T03:57:46;24.50;;;10.68;;
60372;SDS011;46216;52.220;5.134;2023-03-03T04:00:12;31.98;;;11.55;;
60372;SDS011;46216;52.220;5.134;2023-03-03T04:02:38;28.70;;;12.00;;
60372;SDS011;46216;52.220;5.134;2023-03-03T04:05:04;26.38;;;12.20;;
60372;SDS011;46216;52.220;5.134;2023-03-03T04:07:29;31.10;;;12.18;;
60372;SDS011;46216;52.220;5.134;2023-03-03T04:09:55;24.60;;;12.45;;
60372;SDS011;46216;52.220;5.134;2023-03-03T04:12:20;28.45;;;11.05;;
60372;SDS011;46216;52.220;5.134;2023-03-03T04:14:45;26.42;;;12.07;;
60372;SDS011;46216;52.220;5.134;2023-03-03T04:17:20;30.65;;;12.00;;
60372;SDS011;46216;52.220;5.134;2023-03-03T04:19:48;28.63;;;12.52;;
60372;SDS011;46216;52.220;5.134;2023-03-03T04:22:14;27.23;;;12.63;;
60372;SDS011;46216;52.220;5.134;2023-03-03T04:24:39;37.42;;;11.95;;
60372;SDS011;46216;52.220;5.134;2023-03-03T04:27:05;33.67;;;12.95;;
60372;SDS011;46216;52.220;5.134;2023-03-03T04:29:32;27.92;;;12.15;;
60372;SDS011;46216;52.220;5.134;2023-03-03T04:31:58;25.67;;;11.15;;
60372;SDS011;46216;52.220;5.134;2023-03-03T04:34:23;26.63;;;11.80;;
60372;SDS011;46216;52.220;5.134;2023-03-03T04:36:48;30.40;;;11.82;;
60372;SDS011;46216;52.220;5.134;2023-03-03T04:39:13;29.45;;;10.98;;
60372;SDS011;46216;52.220;5.134;2023-03-03T04:41:39;34.33;;;11.65;;
60372;SDS011;46216;52.220;5.134;2023-03-03T04:44:04;31.42;;;10.63;;
60372;SDS011;46216;52.220;5.134;2023-03-03T04:46:29;37.05;;;12.18;;
60372;SDS011;46216;52.220;5.134;2023-03-03T04:48:55;27.50;;;11.27;;
60372;SDS011;46216;52.220;5.134;2023-03-03T04:51:21;22.33;;;11.13;;
60372;SDS011;46216;52.220;5.134;2023-03-03T04:53:46;26.92;;;11.65;;
60372;SDS011;46216;52.220;5.134;2023-03-03T04:56:12;29.42;;;11.23;;
60372;SDS011;46216;52.220;5.134;2023-03-03T04:58:37;29.67;;;11.77;;
60372;SDS011;46216;52.220;5.134;2023-03-03T05:01:02;29.25;;;12.52;;
60372;SDS011;46216;52.220;5.134;2023-03-03T05:03:28;33.42;;;12.32;;
60372;SDS011;46216;52.220;5.134;2023-03-03T05:05:53;29.27;;;11.85;;
60372;SDS011;46216;52.220;5.134;2023-03-03T05:08:19;27.45;;;11.30;;
60372;SDS011;46216;52.220;5.134;2023-03-03T05:10:44;33.58;;;12.32;;
60372;SDS011;46216;52.220;5.134;2023-03-03T05:13:09;33.40;;;12.20;;
60372;SDS011;46216;52.220;5.134;2023-03-03T05:15:35;34.50;;;12.20;;
60372;SDS011;46216;52.220;5.134;2023-03-03T05:18:01;32.88;;;11.98;;
60372;SDS011;46216;52.220;5.134;2023-03-03T05:20:26;34.50;;;12.20;;
60372;SDS011;46216;52.220;5.134;2023-03-03T05:22:52;38.72;;;12.05;;
60372;SDS011;46216;52.220;5.134;2023-03-03T05:25:18;41.80;;;12.02;;
60372;SDS011;46216;52.220;5.134;2023-03-03T05:27:44;31.35;;;11.70;;
60372;SDS011;46216;52.220;5.134;2023-03-03T05:30:10;37.00;;;11.68;;
60372;SDS011;46216;52.220;5.134;2023-03-03T05:32:36;26.50;;;11.02;;
60372;SDS011;46216;52.220;5.134;2023-03-03T05:35:02;33.08;;;11.68;;
60372;SDS011;46216;52.220;5.134;2023-03-03T05:37:28;30.52;;;10.98;;
60372;SDS011;46216;52.220;5.134;2023-03-03T05:39:53;38.13;;;11.90;;
60372;SDS011;46216;52.220;5.134;2023-03-03T05:42:18;27.48;;;11.90;;
60372;SDS011;46216;52.220;5.134;2023-03-03T05:44:44;37.65;;;12.30;;
60372;SDS011;46216;52.220;5.134;2023-03-03T05:47:09;40.72;;;11.23;;
60372;SDS011;46216;52.220;5.134;2023-03-03T05:49:34;34.28;;;11.45;;
60372;SDS011;46216;52.220;5.134;2023-03-03T05:52:00;32.25;;;11.55;;
60372;SDS011;46216;52.220;5.134;2023-03-03T05:54:26;35.00;;;10.82;;
60372;SDS011;46216;52.220;5.134;2023-03-03T05:56:51;33.15;;;11.70;;
60372;SDS011;46216;52.220;5.134;2023-03-03T05:59:16;31.38;;;11.55;;
60372;SDS011;46216;52.220;5.134;2023-03-03T06:01:43;23.65;;;10.95;;
60372;SDS011;46216;52.220;5.134;2023-03-03T06:04:08;38.78;;;11.82;;
60372;SDS011;46216;52.220;5.134;2023-03-03T06:06:33;32.95;;;12.20;;
60372;SDS011;46216;52.220;5.134;2023-03-03T06:08:59;35.67;;;11.02;;
60372;SDS011;46216;52.220;5.134;2023-03-03T06:11:24;34.63;;;12.32;;
60372;SDS011;46216;52.220;5.134;2023-03-03T06:13:49;36.25;;;12.93;;
60372;SDS011;46216;52.220;5.134;2023-03-03T06:16:15;28.63;;;12.13;;
60372;SDS011;46216;52.220;5.134;2023-03-03T06:18:40;37.92;;;13.00;;
60372;SDS011;46216;52.220;5.134;2023-03-03T06:21:06;30.83;;;12.57;;
60372;SDS011;46216;52.220;5.134;2023-03-03T06:23:31;30.83;;;12.65;;
60372;SDS011;46216;52.220;5.134;2023-03-03T06:25:56;32.70;;;12.63;;
60372;SDS011;46216;52.220;5.134;2023-03-03T06:28:22;36.33;;;12.68;;
60372;SDS011;46216;52.220;5.134;2023-03-03T06:30:51;40.63;;;12.63;;
60372;SDS011;46216;52.220;5.134;2023-03-03T06:33:18;30.88;;;12.02;;
60372;SDS011;46216;52.220;5.134;2023-03-03T06:35:47;30.75;;;11.90;;
60372;SDS011;46216;52.220;5.134;2023-03-03T06:38:14;33.00;;;11.82;;
60372;SDS011;46216;52.220;5.134;2023-03-03T06:40:39;33.90;;;13.57;;
60372;SDS011;46216;52.220;5.134;2023-03-03T06:43:05;30.50;;;13.20;;
60372;SDS011;46216;52.220;5.134;2023-03-03T06:45:30;35.72;;;12.60;;
60372;SDS011;46216;52.220;5.134;2023-03-03T06:47:55;27.63;;;12.85;;
60372;SDS011;46216;52.220;5.134;2023-03-03T06:50:21;27.00;;;12.20;;
60372;SDS011;46216;52.220;5.134;2023-03-03T06:52:47;35.90;;;12.68;;
60372;SDS011;46216;52.220;5.134;2023-03-03T06:55:16;30.58;;;12.68;;
60372;SDS011;46216;52.220;5.134;2023-03-03T06:57:46;32.10;;;12.35;;
60372;SDS011;46216;52.220;5.134;2023-03-03T07:02:41;35.58;;;12.68;;
60372;SDS011;46216;52.220;5.134;2023-03-03T07:05:13;28.77;;;12.27;;
60372;SDS011;46216;52.220;5.134;2023-03-03T07:07:40;28.50;;;12.52;;
60372;SDS011;46216;52.220;5.134;2023-03-03T07:10:10;32.08;;;13.85;;
60372;SDS011;46216;52.220;5.134;2023-03-03T07:12:42;29.98;;;12.70;;
60372;SDS011;46216;52.220;5.134;2023-03-03T07:18:18;31.90;;;12.48;;
60372;SDS011;46216;52.220;5.134;2023-03-03T07:20:45;24.25;;;12.55;;
60372;SDS011;46216;52.220;5.134;2023-03-03T07:23:14;27.08;;;11.80;;
60372;SDS011;46216;52.220;5.134;2023-03-03T07:25:45;25.55;;;11.57;;
60372;SDS011;46216;52.220;5.134;2023-03-03T07:28:26;24.85;;;12.13;;
60372;SDS011;46216;52.220;5.134;2023-03-03T07:30:53;22.23;;;11.57;;
60372;SDS011;46216;52.220;5.134;2023-03-03T07:33:25;25.38;;;11.70;;
60372;SDS011;46216;52.220;5.134;2023-03-03T07:35:53;25.48;;;11.75;;
60372;SDS011;46216;52.220;5.134;2023-03-03T07:41:02;26.42;;;11.27;;
60372;SDS011;46216;52.220;5.134;2023-03-03T07:43:30;31.30;;;12.27;;
60372;SDS011;46216;52.220;5.134;2023-03-03T07:46:01;32.83;;;12.13;;
60372;SDS011;46216;52.220;5.134;2023-03-03T07:48:47;25.17;;;11.90;;
60372;SDS011;46216;52.220;5.134;2023-03-03T07:51:15;27.05;;;11.85;;
60372;SDS011;46216;52.220;5.134;2023-03-03T07:53:46;24.27;;;12.00;;
60372;SDS011;46216;52.220;5.134;2023-03-03T07:56:16;26.40;;;13.07;;
60372;SDS011;46216;52.220;5.134;2023-03-03T07:58:58;27.45;;;12.30;;
60372;SDS011;46216;52.220;5.134;2023-03-03T08:07:10;22.48;;;11.80;;
60372;SDS011;46216;52.220;5.134;2023-03-03T08:12:27;23.48;;;12.65;;
60372;SDS011;46216;52.220;5.134;2023-03-03T08:14:53;25.80;;;11.88;;
60372;SDS011;46216;52.220;5.134;2023-03-03T08:19:51;25.65;;;11.90;;
60372;SDS011;46216;52.220;5.134;2023-03-03T08:22:28;25.75;;;11.98;;
60372;SDS011;46216;52.220;5.134;2023-03-03T08:24:57;25.92;;;11.60;;
60372;SDS011;46216;52.220;5.134;2023-03-03T08:27:23;22.52;;;12.00;;
60372;SDS011;46216;52.220;5.134;2023-03-03T08:29:48;24.52;;;12.40;;
60372;SDS011;46216;52.220;5.134;2023-03-03T08:32:14;23.60;;;12.07;;
60372;SDS011;46216;52.220;5.134;2023-03-03T08:34:39;22.20;;;11.77;;
60372;SDS011;46216;52.220;5.134;2023-03-03T08:37:05;23.17;;;11.48;;
60372;SDS011;46216;52.220;5.134;2023-03-03T08:39:30;22.00;;;11.80;;
60372;SDS011;46216;52.220;5.134;2023-03-03T08:41:55;20.88;;;11.15;;
60372;SDS011;46216;52.220;5.134;2023-03-03T08:44:21;22.17;;;11.93;;
60372;SDS011;46216;52.220;5.134;2023-03-03T08:46:47;21.98;;;12.15;;
60372;SDS011;46216;52.220;5.134;2023-03-03T08:49:12;22.80;;;11.60;;
60372;SDS011;46216;52.220;5.134;2023-03-03T08:51:38;21.15;;;11.25;;
60372;SDS011;46216;52.220;5.134;2023-03-03T08:54:06;19.90;;;11.50;;
60372;SDS011;46216;52.220;5.134;2023-03-03T08:56:31;20.27;;;10.93;;
60372;SDS011;46216;52.220;5.134;2023-03-03T08:58:57;16.23;;;9.50;;
60372;SDS011;46216;52.220;5.134;2023-03-03T09:01:22;16.63;;;9.65;;
60372;SDS011;46216;52.220;5.134;2023-03-03T09:03:47;16.35;;;8.48;;
60372;SDS011;46216;52.220;5.134;2023-03-03T09:06:13;16.42;;;8.55;;
60372;SDS011;46216;52.220;5.134;2023-03-03T09:08:38;11.45;;;7.47;;
60372;SDS011;46216;52.220;5.134;2023-03-03T09:11:13;11.75;;;7.03;;
60372;SDS011;46216;52.220;5.134;2023-03-03T09:13:39;12.45;;;7.35;;
60372;SDS011;46216;52.220;5.134;2023-03-03T09:16:12;13.57;;;7.43;;
60372;SDS011;46216;52.220;5.134;2023-03-03T09:18:38;12.45;;;7.07;;
60372;SDS011;46216;52.220;5.134;2023-03-03T09:21:15;9.32;;;6.20;;
60372;SDS011;46216;52.220;5.134;2023-03-03T09:23:47;9.70;;;5.60;;
60372;SDS011;46216;52.220;5.134;2023-03-03T09:26:21;9.32;;;5.68;;
60372;SDS011;46216;52.220;5.134;2023-03-03T09:28:46;9.48;;;6.10;;
60372;SDS011;46216;52.220;5.134;2023-03-03T09:31:19;11.35;;;6.07;;
60372;SDS011;46216;52.220;5.134;2023-03-03T09:33:48;9.95;;;5.55;;
60372;SDS011;46216;52.220;5.134;2023-03-03T09:39:00;9.50;;;5.10;;
60372;SDS011;46216;52.220;5.134;2023-03-03T09:41:45;8.95;;;5.85;;
60372;SDS011;46216;52.220;5.134;2023-03-03T09:55:49;6.82;;;4.78;;
60372;SDS011;46216;52.220;5.134;2023-03-03T10:11:49;7.47;;;3.78;;
60372;SDS011;46216;52.220;5.134;2023-03-03T10:19:38;7.10;;;4.00;;
60372;SDS011;46216;52.220;5.134;2023-03-03T10:22:16;7.03;;;4.10;;
60372;SDS011;46216;52.220;5.134;2023-03-03T10:45:17;6.78;;;3.33;;
60372;SDS011;46216;52.220;5.134;2023-03-03T10:50:45;6.60;;;2.83;;
60372;SDS011;46216;52.220;5.134;2023-03-03T11:01:25;4.65;;;2.58;;
60372;SDS011;46216;52.220;5.134;2023-03-03T11:04:16;6.47;;;3.00;;
60372;SDS011;46216;52.220;5.134;2023-03-03T11:07:10;3.92;;;2.13;;
60372;SDS011;46216;52.220;5.134;2023-03-03T11:12:17;5.78;;;2.30;;
60372;SDS011;46216;52.220;5.134;2023-03-03T11:15:12;3.95;;;2.13;;
60372;SDS011;46216;52.220;5.134;2023-03-03T11:20:49;3.38;;;2.30;;
60372;SDS011;46216;52.220;5.134;2023-03-03T11:23:26;3.05;;;1.70;;
60372;SDS011;46216;52.220;5.134;2023-03-03T11:34:17;3.00;;;1.80;;
60372;SDS011;46216;52.220;5.134;2023-03-03T11:39:51;2.92;;;1.58;;
60372;SDS011;46216;52.220;5.134;2023-03-03T11:42:23;2.80;;;1.75;;
60372;SDS011;46216;52.220;5.134;2023-03-03T11:47:38;3.72;;;1.48;;
60372;SDS011;46216;52.220;5.134;2023-03-03T11:50:21;2.55;;;1.27;;
60372;SDS011;46216;52.220;5.134;2023-03-03T11:55:26;3.53;;;1.42;;
60372;SDS011;46216;52.220;5.134;2023-03-03T11:58:00;3.75;;;1.48;;
60372;SDS011;46216;52.220;5.134;2023-03-03T12:03:40;4.25;;;1.50;;
60372;SDS011;46216;52.220;5.134;2023-03-03T12:09:02;4.28;;;1.33;;
60372;SDS011;46216;52.220;5.134;2023-03-03T12:12:00;3.67;;;1.60;;
60372;SDS011;46216;52.220;5.134;2023-03-03T12:20:26;2.72;;;1.23;;
60372;SDS011;46216;52.220;5.134;2023-03-03T12:26:15;4.25;;;1.60;;
60372;SDS011;46216;52.220;5.134;2023-03-03T12:28:51;4.63;;;1.60;;
60372;SDS011;46216;52.220;5.134;2023-03-03T12:31:24;3.28;;;1.83;;
60372;SDS011;46216;52.220;5.134;2023-03-03T12:34:13;2.55;;;1.30;;
60372;SDS011;46216;52.220;5.134;2023-03-03T12:45:17;3.25;;;1.10;;
60372;SDS011;46216;52.220;5.134;2023-03-03T12:47:50;2.20;;;1.25;;
60372;SDS011;46216;52.220;5.134;2023-03-03T13:03:31;0.88;;;0.60;;
60372;SDS011;46216;52.220;5.134;2023-03-03T13:11:41;2.50;;;0.88;;
60372;SDS011;46216;52.220;5.134;2023-03-03T13:19:57;3.83;;;1.08;;
60372;SDS011;46216;52.220;5.134;2023-03-03T13:27:47;2.67;;;0.90;;
60372;SDS011;46216;52.220;5.134;2023-03-03T13:30:21;1.95;;;0.70;;
60372;SDS011;46216;52.220;5.134;2023-03-03T13:35:49;0.90;;;0.73;;
60372;SDS011;46216;52.220;5.134;2023-03-03T13:38:24;1.83;;;0.80;;
60372;SDS011;46216;52.220;5.134;2023-03-03T13:41:00;3.17;;;0.93;;
60372;SDS011;46216;52.220;5.134;2023-03-03T13:44:19;2.95;;;0.85;;
60372;SDS011;46216;52.220;5.134;2023-03-03T13:46:40;2.00;;;1.00;;
60372;SDS011;46216;52.220;5.134;2023-03-03T13:52:14;2.83;;;0.80;;
60372;SDS011;46216;52.220;5.134;2023-03-03T14:00:52;5.70;;;1.02;;
60372;SDS011;46216;52.220;5.134;2023-03-03T14:03:45;4.15;;;1.00;;
60372;SDS011;46216;52.220;5.134;2023-03-03T14:06:18;2.22;;;0.80;;
60372;SDS011;46216;52.220;5.134;2023-03-03T14:08:49;2.53;;;1.10;;
60372;SDS011;46216;52.220;5.134;2023-03-03T14:11:33;3.20;;;0.80;;
60372;SDS011;46216;52.220;5.134;2023-03-03T14:14:11;4.82;;;0.95;;
60372;SDS011;46216;52.220;5.134;2023-03-03T14:16:51;3.05;;;0.82;;
60372;SDS011;46216;52.220;5.134;2023-03-03T14:19:30;1.95;;;1.00;;
60372;SDS011;46216;52.220;5.134;2023-03-03T14:30:37;3.50;;;0.93;;
60372;SDS011;46216;52.220;5.134;2023-03-03T14:35:33;4.40;;;1.15;;
60372;SDS011;46216;52.220;5.134;2023-03-03T14:38:01;1.42;;;0.85;;
60372;SDS011;46216;52.220;5.134;2023-03-03T14:40:46;1.95;;;0.80;;
60372;SDS011;46216;52.220;5.134;2023-03-03T14:43:23;2.92;;;0.90;;
60372;SDS011;46216;52.220;5.134;2023-03-03T14:45:51;3.28;;;1.10;;
60372;SDS011;46216;52.220;5.134;2023-03-03T14:48:19;1.65;;;0.95;;
60372;SDS011;46216;52.220;5.134;2023-03-03T14:50:52;3.72;;;1.10;;
60372;SDS011;46216;52.220;5.134;2023-03-03T14:53:35;4.30;;;1.00;;
60372;SDS011;46216;52.220;5.134;2023-03-03T14:59:14;4.95;;;1.05;;
60372;SDS011;46216;52.220;5.134;2023-03-03T15:01:45;1.80;;;0.88;;
60372;SDS011;46216;52.220;5.134;2023-03-03T15:06:40;3.30;;;1.02;;
60372;SDS011;46216;52.220;5.134;2023-03-03T15:09:24;2.60;;;0.80;;
60372;SDS011;46216;52.220;5.134;2023-03-03T15:12:25;2.50;;;1.00;;
60372;SDS011;46216;52.220;5.134;2023-03-03T15:23:13;4.78;;;1.08;;
60372;SDS011;46216;52.220;5.134;2023-03-03T15:25:58;2.95;;;0.80;;
60372;SDS011;46216;52.220;5.134;2023-03-03T15:39:12;5.00;;;1.30;;
60372;SDS011;46216;52.220;5.134;2023-03-03T15:44:45;5.28;;;0.95;;
60372;SDS011;46216;52.220;5.134;2023-03-03T15:47:32;2.15;;;0.95;;
60372;SDS011;46216;52.220;5.134;2023-03-03T15:50:11;3.42;;;0.80;;
60372;SDS011;46216;52.220;5.134;2023-03-03T16:01:34;6.18;;;1.10;;
60372;SDS011;46216;52.220;5.134;2023-03-03T16:04:07;4.50;;;1.10;;
60372;SDS011;46216;52.220;5.134;2023-03-03T16:09:35;3.58;;;1.08;;
60372;SDS011;46216;52.220;5.134;2023-03-03T16:15:15;5.47;;;1.05;;
60372;SDS011;46216;52.220;5.134;2023-03-03T16:20:27;4.60;;;1.10;;
60372;SDS011;46216;52.220;5.134;2023-03-03T16:26:01;2.45;;;0.90;;
60372;SDS011;46216;52.220;5.134;2023-03-03T16:28:40;3.58;;;1.00;;
60372;SDS011;46216;52.220;5.134;2023-03-03T16:31:21;3.92;;;1.10;;
60372;SDS011;46216;52.220;5.134;2023-03-03T16:36:39;4.68;;;1.20;;
60372;SDS011;46216;52.220;5.134;2023-03-03T16:42:12;5.00;;;0.93;;
60372;SDS011;46216;52.220;5.134;2023-03-03T16:44:52;3.40;;;0.88;;
60372;SDS011;46216;52.220;5.134;2023-03-03T16:47:29;4.43;;;1.40;;
60372;SDS011;46216;52.220;5.134;2023-03-03T16:52:48;3.58;;;1.33;;
60372;SDS011;46216;52.220;5.134;2023-03-03T16:55:20;3.45;;;1.10;;
60372;SDS011;46216;52.220;5.134;2023-03-03T16:57:56;5.47;;;1.20;;
60372;SDS011;46216;52.220;5.134;2023-03-03T17:00:34;6.90;;;1.30;;
60372;SDS011;46216;52.220;5.134;2023-03-03T17:08:30;5.72;;;1.30;;
60372;SDS011;46216;52.220;5.134;2023-03-03T17:33:50;7.80;;;2.10;;
60372;SDS011;46216;52.220;5.134;2023-03-03T17:36:28;9.30;;;1.70;;
60372;SDS011;46216;52.220;5.134;2023-03-03T17:39:07;6.50;;;1.50;;
60372;SDS011;46216;52.220;5.134;2023-03-03T17:44:25;8.00;;;1.98;;
60372;SDS011;46216;52.220;5.134;2023-03-03T17:47:04;10.77;;;1.95;;
60372;SDS011;46216;52.220;5.134;2023-03-03T18:00:50;13.43;;;2.63;;
60372;SDS011;46216;52.220;5.134;2023-03-03T18:08:48;11.15;;;2.60;;
60372;SDS011;46216;52.220;5.134;2023-03-03T18:11:33;12.35;;;2.55;;
60372;SDS011;46216;52.220;5.134;2023-03-03T18:14:24;16.20;;;2.53;;
60372;SDS011;46216;52.220;5.134;2023-03-03T18:22:33;11.40;;;2.65;;
60372;SDS011;46216;52.220;5.134;2023-03-03T18:25:10;15.38;;;2.65;;
60372;SDS011;46216;52.220;5.134;2023-03-03T18:27:46;13.23;;;1.95;;
60372;SDS011;46216;52.220;5.134;2023-03-03T18:33:56;20.80;;;2.42;;
60372;SDS011;46216;52.220;5.134;2023-03-03T18:38:55;9.23;;;1.90;;
60372;SDS011;46216;52.220;5.134;2023-03-03T18:41:22;10.43;;;2.00;;
60372;SDS011;46216;52.220;5.134;2023-03-03T18:43:52;13.27;;;2.30;;
60372;SDS011;46216;52.220;5.134;2023-03-03T18:48:52;14.90;;;2.13;;
60372;SDS011;46216;52.220;5.134;2023-03-03T19:04:36;12.55;;;2.33;;
60372;SDS011;46216;52.220;5.134;2023-03-03T19:07:17;10.25;;;2.25;;
60372;SDS011;46216;52.220;5.134;2023-03-03T19:09:55;12.07;;;2.78;;
60372;SDS011;46216;52.220;5.134;2023-03-03T19:18:00;14.43;;;2.38;;
60372;SDS011;46216;52.220;5.134;2023-03-03T19:31:41;16.33;;;3.00;;
60372;SDS011;46216;52.220;5.134;2023-03-03T19:34:36;17.90;;;2.83;;
60372;SDS011;46216;52.220;5.134;2023-03-03T19:39:56;14.60;;;3.45;;
60372;SDS011;46216;52.220;5.134;2023-03-03T19:48:14;22.10;;;3.03;;
60372;SDS011;46216;52.220;5.134;2023-03-03T19:53:38;12.43;;;2.90;;
60372;SDS011;46216;52.220;5.134;2023-03-03T19:56:49;12.63;;;3.08;;
60372;SDS011;46216;52.220;5.134;2023-03-03T19:59:19;14.85;;;4.13;;
60372;SDS011;46216;52.220;5.134;2023-03-03T20:01:50;14.30;;;2.90;;
60372;SDS011;46216;52.220;5.134;2023-03-03T20:04:34;10.90;;;2.70;;
60372;SDS011;46216;52.220;5.134;2023-03-03T20:21:05;16.45;;;2.65;;
60372;SDS011;46216;52.220;5.134;2023-03-03T20:26:38;13.77;;;2.67;;
60372;SDS011;46216;52.220;5.134;2023-03-03T20:29:28;14.10;;;2.70;;
60372;SDS011;46216;52.220;5.134;2023-03-03T20:32:26;13.75;;;2.50;;
60372;SDS011;46216;52.220;5.134;2023-03-03T20:35:07;14.65;;;2.33;;
60372;SDS011;46216;52.220;5.134;2023-03-03T20:44:06;17.42;;;2.40;;
60372;SDS011;46216;52.220;5.134;2023-03-03T20:55:36;13.95;;;2.72;;
60372;SDS011;46216;52.220;5.134;2023-03-03T21:03:40;16.27;;;3.35;;
60372;SDS011;46216;52.220;5.134;2023-03-03T21:06:13;20.55;;;3.20;;
60372;SDS011;46216;52.220;5.134;2023-03-03T21:08:50;15.10;;;3.30;;
60372;SDS011;46216;52.220;5.134;2023-03-03T21:11:18;13.85;;;2.72;;
60372;SDS011;46216;52.220;5.134;2023-03-03T21:14:15;18.08;;;3.30;;
60372;SDS011;46216;52.220;5.134;2023-03-03T21:16:44;11.52;;;2.38;;
60372;SDS011;46216;52.220;5.134;2023-03-03T21:19:10;14.70;;;2.75;;
60372;SDS011;46216;52.220;5.134;2023-03-03T21:21:38;12.75;;;2.78;;
60372;SDS011;46216;52.220;5.134;2023-03-03T21:24:06;9.77;;;2.38;;
60372;SDS011;46216;52.220;5.134;2023-03-03T21:26:47;16.48;;;2.47;;
60372;SDS011;46216;52.220;5.134;2023-03-03T21:32:02;16.63;;;2.17;;
60372;SDS011;46216;52.220;5.134;2023-03-03T21:34:35;11.18;;;2.03;;
60372;SDS011;46216;52.220;5.134;2023-03-03T21:37:05;17.42;;;2.50;;